createdAt,value
2022-09-04T00:02:21.114Z,50.93
2022-09-04T00:07:29.604Z,50.78
2022-09-04T00:12:39.581Z,50.92
2022-09-04T00:17:47.827Z,50.93
2022-09-04T00:22:58.744Z,51.29
2022-09-04T00:28:09.748Z,51.44
2022-09-04T00:33:21.999Z,51.44
2022-09-04T00:38:36.598Z,51.48
2022-09-04T00:44:08.534Z,52.15
2022-09-04T00:49:45.685Z,51.89
2022-09-04T00:55:07.461Z,51.86
2022-09-04T01:00:15.190Z,52.22
2022-09-04T01:05:34.047Z,52.28
2022-09-04T01:10:46.880Z,52.47
2022-09-04T01:15:56.492Z,52.64
2022-09-04T01:21:31.279Z,52.75
2022-09-04T01:26:46.333Z,52.94
2022-09-04T01:31:59.577Z,52.81
2022-09-04T01:37:21.467Z,52.93
2022-09-04T01:42:38.301Z,53.01
2022-09-04T01:47:47.751Z,53.28
2022-09-04T01:52:59.620Z,53.10
2022-09-04T01:58:17.663Z,53.25
2022-09-04T02:03:27.633Z,53.48
2022-09-04T02:08:43.107Z,53.27
2022-09-04T02:14:09.261Z,53.73
2022-09-04T02:19:23.695Z,53.75
2022-09-04T02:24:36.515Z,53.80
2022-09-04T02:29:47.219Z,53.71
2022-09-04T02:34:59.191Z,54.27
2022-09-04T02:40:12.064Z,54.19
2022-09-04T02:45:26.583Z,54.24
2022-09-04T02:50:47.954Z,54.50
2022-09-04T02:56:02.545Z,54.26
2022-09-04T03:01:13.545Z,54.67
2022-09-04T03:06:23.759Z,54.23
2022-09-04T03:11:35.149Z,54.17
2022-09-04T03:16:46.470Z,54.80
2022-09-04T03:21:56.256Z,54.86
2022-09-04T03:27:04.039Z,55.14
2022-09-04T03:32:16.814Z,54.93
2022-09-04T03:37:48.207Z,54.71
2022-09-04T03:43:08.159Z,54.95
2022-09-04T03:48:30.969Z,55.08
2022-09-04T03:53:41.540Z,54.65
2022-09-04T03:58:52.785Z,55.06
2022-09-04T04:04:16.799Z,54.81
2022-09-04T04:09:33.230Z,55.17
2022-09-04T04:14:52.659Z,55.22
2022-09-04T04:20:10.805Z,55.64
2022-09-04T04:25:31.012Z,55.67
2022-09-04T04:30:45.323Z,55.46
2022-09-04T04:36:00.787Z,55.55
2022-09-04T04:41:21.389Z,55.78
2022-09-04T04:46:37.778Z,55.86
2022-09-04T04:51:54.844Z,55.73
2022-09-04T04:57:05.491Z,55.96
2022-09-04T05:02:20.384Z,56.16
2022-09-04T05:07:36.010Z,56.02
2022-09-04T05:12:53.514Z,56.02
2022-09-04T05:18:01.790Z,56.10
2022-09-04T05:23:30.646Z,56.21
2022-09-04T05:28:41.567Z,56.26
2022-09-04T05:33:55.116Z,56.48
2022-09-04T05:39:25.052Z,56.32
2022-09-04T05:44:38.920Z,56.31
2022-09-04T05:50:06.172Z,56.45
2022-09-04T05:55:32.830Z,56.44
2022-09-04T06:00:51.328Z,56.61
2022-09-04T06:06:12.264Z,56.43
2022-09-04T06:11:52.488Z,56.53
2022-09-04T06:17:11.326Z,56.49
2022-09-04T06:22:55.002Z,56.70
2022-09-04T06:28:22.074Z,56.88
2022-09-04T06:33:42.357Z,56.81
2022-09-04T06:39:05.035Z,56.80
2022-09-04T06:44:20.671Z,56.91
2022-09-04T06:49:34.825Z,56.79
2022-09-04T06:54:49.441Z,57.14
2022-09-04T07:00:05.601Z,57.39
2022-09-04T07:05:18.931Z,58.96
2022-09-04T07:10:27.528Z,59.09
2022-09-04T07:15:59.759Z,59.73
2022-09-04T07:21:12.266Z,59.93
2022-09-04T07:26:26.838Z,59.61
2022-09-04T07:31:35.932Z,59.93
2022-09-04T07:36:45.626Z,60.17
2022-09-04T07:41:58.835Z,60.11
2022-09-04T07:47:14.322Z,60.11
2022-09-04T07:52:29.005Z,60.70
2022-09-04T07:57:52.818Z,60.70
2022-09-04T08:03:26.159Z,60.20
2022-09-04T08:08:58.552Z,60.47
2022-09-04T08:14:24.864Z,60.91
2022-09-04T08:19:48.926Z,60.89
2022-09-04T08:25:21.092Z,61.17
2022-09-04T08:30:24.208Z,61.58
2022-09-04T08:35:34.330Z,61.31
2022-09-04T08:41:10.655Z,60.77
2022-09-04T08:46:49.468Z,60.71
2022-09-04T08:52:27.131Z,60.44
2022-09-04T08:57:53.487Z,59.99
2022-09-04T09:03:29.582Z,60.20
2022-09-04T09:09:10.316Z,59.90
2022-09-04T09:14:29.159Z,60.08
2022-09-04T09:19:45.259Z,60.14
2022-09-04T09:25:20.735Z,60.27
2022-09-04T09:30:25.016Z,59.95
2022-09-04T09:36:09.191Z,60.54
2022-09-04T09:41:47.457Z,60.88
2022-09-04T09:47:28.566Z,60.02
2022-09-04T09:53:04.364Z,59.62
2022-09-04T09:58:38.812Z,59.63
2022-09-04T10:04:00.858Z,59.30
2022-09-04T10:09:42.576Z,59.51
2022-09-04T10:15:20.791Z,59.29
2022-09-04T10:20:50.717Z,59.48
2022-09-04T10:26:09.837Z,59.40
2022-09-04T10:31:47.516Z,59.34
2022-09-04T10:37:05.900Z,59.09
2022-09-04T10:42:25.443Z,59.57
2022-09-04T10:47:58.771Z,61.00
2022-09-04T10:53:14.696Z,61.21
2022-09-04T10:58:33.410Z,61.67
2022-09-04T11:03:54.202Z,60.82
2022-09-04T11:09:18.387Z,58.83
2022-09-04T11:14:57.197Z,58.55
2022-09-04T11:20:30.322Z,58.27
2022-09-04T11:26:22.938Z,58.39
2022-09-04T11:31:48.675Z,58.13
2022-09-04T11:37:23.336Z,58.45
2022-09-04T11:42:35.252Z,58.40
2022-09-04T11:48:03.032Z,58.68
2022-09-04T11:53:30.370Z,58.60
2022-09-04T11:59:00.169Z,58.57
2022-09-04T12:04:25.754Z,59.05
2022-09-04T12:09:52.678Z,58.74
2022-09-04T12:15:10.994Z,58.93
2022-09-04T12:20:47.157Z,58.67
2022-09-04T12:26:17.222Z,58.83
2022-09-04T12:31:51.447Z,58.52
2022-09-04T12:37:27.758Z,58.53
2022-09-04T12:42:37.271Z,59.09
2022-09-04T12:47:55.495Z,58.99
2022-09-04T12:53:20.785Z,59.46
2022-09-04T12:58:39.285Z,59.17
2022-09-04T13:03:52.287Z,59.53
2022-09-04T13:09:09.898Z,59.56
2022-09-04T13:14:47.385Z,59.52
2022-09-04T13:20:00.576Z,59.41
2022-09-04T13:25:14.014Z,59.43
2022-09-04T13:30:24.361Z,59.69
2022-09-04T13:35:42.597Z,59.54
2022-09-04T13:41:14.483Z,59.77
2022-09-04T13:46:21.209Z,59.95
2022-09-04T13:51:29.660Z,59.85
2022-09-04T13:56:38.314Z,59.76
2022-09-04T14:01:46.841Z,60.34
2022-09-04T14:06:50.167Z,60.29
2022-09-04T14:12:13.322Z,60.35
2022-09-04T14:17:27.074Z,60.45
2022-09-04T14:22:42.542Z,60.57
2022-09-04T14:27:56.482Z,60.78
2022-09-04T14:33:19.117Z,60.40
2022-09-04T14:38:37.888Z,60.66
2022-09-04T14:43:50.420Z,60.69
2022-09-04T14:49:02.885Z,61.36
2022-09-04T14:54:08.173Z,61.13
2022-09-04T14:59:20.343Z,61.48
2022-09-04T15:04:30.510Z,61.15
2022-09-04T15:09:39.306Z,61.15
2022-09-04T15:14:47.399Z,61.20
2022-09-04T15:19:57.735Z,61.26
2022-09-04T15:25:05.384Z,60.89
2022-09-04T15:30:17.887Z,60.92
2022-09-04T15:35:32.720Z,60.74
2022-09-04T15:40:59.637Z,60.96
2022-09-04T15:46:12.382Z,60.83
2022-09-04T15:51:23.493Z,60.88
2022-09-04T15:56:34.835Z,61.05
2022-09-04T16:01:45.701Z,60.90
2022-09-04T16:06:55.869Z,61.38
2022-09-04T16:12:06.071Z,61.17
2022-09-04T16:17:14.960Z,61.05
2022-09-04T16:22:27.995Z,60.87
2022-09-04T16:27:30.988Z,61.35
2022-09-04T16:32:35.967Z,60.98
2022-09-04T16:37:45.747Z,61.64
2022-09-04T16:42:52.358Z,61.35
2022-09-04T16:48:33.638Z,61.21
2022-09-04T16:53:36.719Z,61.38
2022-09-04T16:58:52.688Z,61.30
2022-09-04T17:04:13.174Z,61.42
2022-09-04T17:09:26.933Z,61.21
2022-09-04T17:14:36.655Z,61.20
2022-09-04T17:19:39.618Z,61.40
2022-09-04T17:29:16.882Z,61.26
2022-09-04T17:30:25.489Z,61.68
2022-09-04T17:40:43.139Z,61.57
2022-09-04T17:41:38.376Z,61.98
2022-09-04T17:46:46.261Z,62.03
2022-09-04T17:51:57.835Z,61.81
2022-09-04T17:57:08.044Z,61.87
2022-09-04T18:02:17.720Z,62.07
2022-09-04T18:08:07.753Z,61.85
2022-09-04T18:13:08.852Z,61.55
2022-09-04T18:18:39.542Z,60.28
2022-09-04T18:23:52.156Z,59.74
2022-09-04T18:29:30.460Z,59.35
2022-09-04T18:37:16.260Z,59.53
2022-09-04T18:40:08.134Z,58.60
2022-09-04T18:50:43.482Z,58.40
2022-09-04T18:56:20.800Z,56.79
2022-09-04T19:01:32.630Z,56.75
2022-09-04T19:06:39.900Z,56.40
2022-09-04T19:11:48.803Z,56.00
2022-09-04T19:16:55.920Z,55.27
2022-09-04T19:22:09.179Z,55.43
2022-09-04T19:27:28.507Z,54.88
2022-09-04T19:32:39.158Z,54.62
2022-09-04T19:41:12.626Z,55.20
2022-09-04T19:46:13.769Z,54.30
2022-09-04T19:49:40.648Z,54.26
2022-09-04T19:54:14.358Z,54.18
2022-09-04T19:59:24.193Z,53.89
2022-09-04T20:04:38.591Z,53.92
2022-09-04T20:09:49.005Z,54.01
2022-09-04T20:14:56.118Z,53.62
2022-09-04T20:20:04.808Z,53.58
2022-09-04T20:25:28.456Z,53.58
2022-09-04T20:30:35.107Z,53.59
2022-09-04T20:35:45.968Z,53.67
2022-09-04T20:40:52.945Z,53.34
2022-09-04T20:52:37.614Z,53.36
2022-09-04T20:53:05.609Z,53.17
2022-09-04T21:03:05.105Z,53.11
2022-09-04T21:03:24.102Z,53.07
2022-09-04T21:08:34.377Z,52.95
2022-09-04T21:13:43.093Z,52.73
2022-09-04T21:19:28.823Z,52.92
2022-09-04T21:24:54.084Z,52.67
2022-09-04T21:30:15.495Z,53.13
2022-09-04T21:35:22.867Z,52.78
2022-09-04T21:41:05.047Z,53.03
2022-09-04T21:46:29.028Z,52.95
2022-09-04T21:51:57.210Z,52.92
2022-09-04T22:02:27.649Z,52.61
2022-09-04T22:03:19.351Z,52.56
2022-09-04T22:12:37.802Z,52.56
2022-09-04T22:14:07.426Z,52.90
2022-09-04T22:19:33.085Z,53.14
2022-09-04T22:24:53.029Z,53.29
2022-09-04T22:30:07.598Z,53.47
2022-09-04T22:35:49.164Z,53.32
2022-09-04T22:41:10.081Z,53.95
2022-09-04T22:46:41.614Z,54.00
2022-09-04T22:52:12.321Z,53.87
2022-09-04T22:57:24.226Z,54.25
2022-09-04T23:03:07.687Z,54.14
2022-09-04T23:13:44.006Z,54.43
2022-09-04T23:14:21.079Z,54.62
2022-09-04T23:24:29.894Z,54.79
2022-09-04T23:26:41.496Z,55.09
2022-09-04T23:31:03.424Z,55.25
2022-09-04T23:36:37.459Z,55.30
2022-09-04T23:41:53.576Z,55.36
2022-09-04T23:47:19.718Z,55.73
2022-09-04T23:52:55.391Z,55.58
2022-09-04T23:58:24.347Z,55.77
